This is the latest recevied weather packets stored in our database for station/object N9DMT-13. If no packets are shown the sender has not sent any weather packets the latest 10 day(s).
| Time | Temp. | Humidity | Pressure | Rain* | Wind** | Luminosity | Snow |
|---|---|---|---|---|---|---|---|
| 1777742785 | 14.44° C | 36% | 985.8 hPa | 0 mm | - | - | - |
| 1777742484 | 15° C | 33% | 985.8 hPa | 0 mm | - | - | - |
| 1777742183 | 15° C | 33% | 985.9 hPa | 0 mm | - | - | - |
| 1777741883 | 14.44° C | 35% | 986 hPa | 0 mm | - | - | - |
| 1777741582 | 15.56° C | 33% | 985.9 hPa | 0 mm | - | - | - |
| 1777741281 | 15° C | 33% | 985.9 hPa | 0 mm | - | - | - |
| 1777740980 | 15° C | 32% | 985.9 hPa | 0 mm | - | - | - |
| 1777740680 | 13.89° C | 34% | 986 hPa | 0 mm | - | - | - |
| 1777740379 | 13.89° C | 34% | 986.2 hPa | 0 mm | - | - | - |
| 1777740078 | 15° C | 35% | 985.9 hPa | 0 mm | - | - | - |
| 1777739777 | 14.44° C | 36% | 986.2 hPa | 0 mm | - | - | - |
| 1777739477 | 13.89° C | 38% | 986.2 hPa | 0 mm | - | - | - |
| 1777739176 | 13.89° C | 37% | 986.3 hPa | 0 mm | - | - | - |
| 1777738875 | 13.89° C | 35% | 986.6 hPa | 0 mm | - | - | - |
| 1777738574 | 14.44° C | 35% | 986.6 hPa | 0 mm | - | - | - |
| 1777738273 | 13.89° C | 37% | 986.4 hPa | 0 mm | - | - | - |
| 1777737973 | 13.89° C | 35% | 986.4 hPa | 0 mm | - | - | - |
| 1777737672 | 13.33° C | 37% | 986.5 hPa | 0 mm | - | - | - |
| 1777737371 | 13.89° C | 36% | 986.6 hPa | 0 mm | - | - | - |
| 1777737070 | 13.89° C | 39% | 986.7 hPa | 0 mm | - | - | - |
| 1777736769 | 13.89° C | 38% | 986.7 hPa | 0 mm | - | - | - |
| 1777736469 | 13.33° C | 39% | 986.8 hPa | 0 mm | - | - | - |
| 1777736168 | 12.78° C | 39% | 986.7 hPa | 0 mm | - | - | - |
| 1777735867 | 12.78° C | 38% | 986.8 hPa | 0 mm | - | - | - |
| 1777735566 | 12.78° C | 38% | 986.8 hPa | 0 mm | - | - | - |
* Rain latest hour (hover to see other rain measurements)
** Current wind speed in m/s (hover to see current wind gust speed)